Ishoj, Denmark
Current Conditions -  °F | °C
As of 5:20 PM on Monday 26 Jan 2015 (Local Time) from EKRK Reporting Station
Light Rain Light Rain  
Wind Chill: 27°   Ceiling: 600
Heat Index: 36°   Visibility: 6mi
Dew Point: 36°   Wind: 13mph
Humidity: 100%   Direction: 210°SSW
Pressure: 29.74"   Gusts: NA
Location:  55.62°N, 12.35°E
Report Text: EKRK 261620Z AUTO 21011KT 9000NDV -RA SCT004/// OVC006///02/02 Q1007
Loading
Personal Weather Stations






























Interactive Weather Map New forecast layout! Learn more

10-Day Weather Forecast

Advertisements
Track Severe Weather on mobile